sensor_id;sensor_type;location;lat;lon;timestamp;P1;durP1;ratioP1;P2;durP2;ratioP2
66384;SDS011;53426;55.872;37.462;2023-03-01T00:01:08;1.30;;;1.20;;
66384;SDS011;53426;55.872;37.462;2023-03-01T00:03:45;2.30;;;1.40;;
66384;SDS011;53426;55.872;37.462;2023-03-01T00:06:11;1.92;;;1.20;;
66384;SDS011;53426;55.872;37.462;2023-03-01T00:08:37;3.08;;;1.52;;
66384;SDS011;53426;55.872;37.462;2023-03-01T00:11:07;3.80;;;1.30;;
66384;SDS011;53426;55.872;37.462;2023-03-01T00:13:34;1.10;;;1.10;;
66384;SDS011;53426;55.872;37.462;2023-03-01T00:16:02;4.30;;;1.15;;
66384;SDS011;53426;55.872;37.462;2023-03-01T00:18:28;1.00;;;0.90;;
66384;SDS011;53426;55.872;37.462;2023-03-01T00:20:55;6.88;;;1.38;;
66384;SDS011;53426;55.872;37.462;2023-03-01T00:23:21;1.63;;;1.27;;
66384;SDS011;53426;55.872;37.462;2023-03-01T00:25:48;1.88;;;1.02;;
66384;SDS011;53426;55.872;37.462;2023-03-01T00:28:15;1.02;;;1.02;;
66384;SDS011;53426;55.872;37.462;2023-03-01T00:30:41;1.15;;;1.05;;
66384;SDS011;53426;55.872;37.462;2023-03-01T00:33:07;2.17;;;0.93;;
66384;SDS011;53426;55.872;37.462;2023-03-01T00:35:33;1.38;;;0.93;;
66384;SDS011;53426;55.872;37.462;2023-03-01T00:38:00;3.85;;;1.15;;
66384;SDS011;53426;55.872;37.462;2023-03-01T00:40:27;2.15;;;0.70;;
66384;SDS011;53426;55.872;37.462;2023-03-01T00:42:54;3.30;;;1.05;;
66384;SDS011;53426;55.872;37.462;2023-03-01T00:45:21;3.33;;;1.33;;
66384;SDS011;53426;55.872;37.462;2023-03-01T00:47:49;0.63;;;0.63;;
66384;SDS011;53426;55.872;37.462;2023-03-01T00:50:16;0.90;;;0.90;;
66384;SDS011;53426;55.872;37.462;2023-03-01T00:52:42;1.13;;;0.93;;
66384;SDS011;53426;55.872;37.462;2023-03-01T00:55:08;0.70;;;0.70;;
66384;SDS011;53426;55.872;37.462;2023-03-01T00:57:34;1.52;;;0.70;;
66384;SDS011;53426;55.872;37.462;2023-03-01T01:00:00;0.85;;;0.85;;
66384;SDS011;53426;55.872;37.462;2023-03-01T01:02:26;2.05;;;1.10;;
66384;SDS011;53426;55.872;37.462;2023-03-01T01:04:53;1.83;;;1.48;;
66384;SDS011;53426;55.872;37.462;2023-03-01T01:07:18;7.18;;;1.40;;
66384;SDS011;53426;55.872;37.462;2023-03-01T01:09:45;0.70;;;0.70;;
66384;SDS011;53426;55.872;37.462;2023-03-01T01:17:38;3.80;;;0.80;;
66384;SDS011;53426;55.872;37.462;2023-03-01T01:20:04;2.03;;;0.90;;
66384;SDS011;53426;55.872;37.462;2023-03-01T01:22:31;1.15;;;1.10;;
66384;SDS011;53426;55.872;37.462;2023-03-01T01:24:57;6.22;;;1.00;;
66384;SDS011;53426;55.872;37.462;2023-03-01T01:27:24;1.48;;;1.02;;
66384;SDS011;53426;55.872;37.462;2023-03-01T01:29:52;1.98;;;1.30;;
66384;SDS011;53426;55.872;37.462;2023-03-01T01:32:19;1.70;;;0.88;;
66384;SDS011;53426;55.872;37.462;2023-03-01T01:34:45;2.05;;;0.90;;
66384;SDS011;53426;55.872;37.462;2023-03-01T01:37:13;1.42;;;1.13;;
66384;SDS011;53426;55.872;37.462;2023-03-01T01:39:39;1.25;;;1.08;;
66384;SDS011;53426;55.872;37.462;2023-03-01T01:42:05;2.08;;;1.00;;
66384;SDS011;53426;55.872;37.462;2023-03-01T01:44:32;1.13;;;0.82;;
66384;SDS011;53426;55.872;37.462;2023-03-01T01:47:02;0.90;;;0.90;;
66384;SDS011;53426;55.872;37.462;2023-03-01T01:49:35;2.78;;;0.70;;
66384;SDS011;53426;55.872;37.462;2023-03-01T01:52:22;0.90;;;0.90;;
66384;SDS011;53426;55.872;37.462;2023-03-01T01:55:11;1.15;;;1.02;;
66384;SDS011;53426;55.872;37.462;2023-03-01T01:57:46;0.80;;;0.80;;
66384;SDS011;53426;55.872;37.462;2023-03-01T02:00:18;1.13;;;1.00;;
66384;SDS011;53426;55.872;37.462;2023-03-01T02:02:50;2.47;;;1.00;;
66384;SDS011;53426;55.872;37.462;2023-03-01T02:05:26;1.48;;;0.90;;
66384;SDS011;53426;55.872;37.462;2023-03-01T02:08:02;4.90;;;0.80;;
66384;SDS011;53426;55.872;37.462;2023-03-01T02:10:33;12.00;;;1.30;;
66384;SDS011;53426;55.872;37.462;2023-03-01T02:13:01;1.00;;;0.90;;
66384;SDS011;53426;55.872;37.462;2023-03-01T02:15:31;2.92;;;0.98;;
66384;SDS011;53426;55.872;37.462;2023-03-01T02:17:59;0.88;;;0.88;;
66384;SDS011;53426;55.872;37.462;2023-03-01T02:20:51;2.70;;;1.10;;
66384;SDS011;53426;55.872;37.462;2023-03-01T02:23:14;1.35;;;1.25;;
66384;SDS011;53426;55.872;37.462;2023-03-01T02:30:47;1.10;;;1.00;;
66384;SDS011;53426;55.872;37.462;2023-03-01T02:33:34;0.80;;;0.80;;
66384;SDS011;53426;55.872;37.462;2023-03-01T02:36:10;3.83;;;1.60;;
66384;SDS011;53426;55.872;37.462;2023-03-01T02:38:41;1.38;;;0.65;;
66384;SDS011;53426;55.872;37.462;2023-03-01T02:41:08;4.40;;;1.10;;
66384;SDS011;53426;55.872;37.462;2023-03-01T02:43:38;3.22;;;1.02;;
66384;SDS011;53426;55.872;37.462;2023-03-01T02:46:08;0.95;;;0.90;;
66384;SDS011;53426;55.872;37.462;2023-03-01T02:48:48;1.83;;;1.10;;
66384;SDS011;53426;55.872;37.462;2023-03-01T02:54:12;1.65;;;1.20;;
66384;SDS011;53426;55.872;37.462;2023-03-01T02:56:51;7.38;;;0.75;;
66384;SDS011;53426;55.872;37.462;2023-03-01T02:59:21;1.55;;;1.00;;
66384;SDS011;53426;55.872;37.462;2023-03-01T03:01:50;2.00;;;0.80;;
66384;SDS011;53426;55.872;37.462;2023-03-01T03:04:17;1.00;;;1.00;;
66384;SDS011;53426;55.872;37.462;2023-03-01T03:06:49;0.82;;;0.80;;
66384;SDS011;53426;55.872;37.462;2023-03-01T03:09:16;1.67;;;0.95;;
66384;SDS011;53426;55.872;37.462;2023-03-01T03:11:43;1.73;;;1.20;;
66384;SDS011;53426;55.872;37.462;2023-03-01T03:14:14;2.33;;;1.20;;
66384;SDS011;53426;55.872;37.462;2023-03-01T03:16:47;7.85;;;1.23;;
66384;SDS011;53426;55.872;37.462;2023-03-01T03:19:18;0.77;;;0.77;;
66384;SDS011;53426;55.872;37.462;2023-03-01T03:21:45;0.90;;;0.90;;
66384;SDS011;53426;55.872;37.462;2023-03-01T03:24:11;1.20;;;1.05;;
66384;SDS011;53426;55.872;37.462;2023-03-01T03:26:38;0.70;;;0.70;;
66384;SDS011;53426;55.872;37.462;2023-03-01T03:29:04;2.03;;;1.15;;
66384;SDS011;53426;55.872;37.462;2023-03-01T03:34:21;2.13;;;1.45;;
66384;SDS011;53426;55.872;37.462;2023-03-01T03:36:47;2.75;;;1.60;;
66384;SDS011;53426;55.872;37.462;2023-03-01T03:39:13;0.88;;;0.88;;
66384;SDS011;53426;55.872;37.462;2023-03-01T03:41:38;1.60;;;1.30;;
66384;SDS011;53426;55.872;37.462;2023-03-01T03:44:04;5.90;;;1.20;;
66384;SDS011;53426;55.872;37.462;2023-03-01T03:46:31;3.67;;;1.30;;
66384;SDS011;53426;55.872;37.462;2023-03-01T03:48:56;0.95;;;0.95;;
66384;SDS011;53426;55.872;37.462;2023-03-01T03:51:23;1.80;;;1.27;;
66384;SDS011;53426;55.872;37.462;2023-03-01T03:53:49;2.80;;;1.10;;
66384;SDS011;53426;55.872;37.462;2023-03-01T03:56:15;4.85;;;1.27;;
66384;SDS011;53426;55.872;37.462;2023-03-01T03:58:42;1.17;;;1.10;;
66384;SDS011;53426;55.872;37.462;2023-03-01T04:01:07;3.50;;;1.60;;
66384;SDS011;53426;55.872;37.462;2023-03-01T04:03:33;3.20;;;1.60;;
66384;SDS011;53426;55.872;37.462;2023-03-01T04:06:00;1.60;;;1.50;;
66384;SDS011;53426;55.872;37.462;2023-03-01T04:08:29;1.98;;;1.50;;
66384;SDS011;53426;55.872;37.462;2023-03-01T04:10:59;2.33;;;1.63;;
66384;SDS011;53426;55.872;37.462;2023-03-01T04:13:47;2.58;;;1.25;;
66384;SDS011;53426;55.872;37.462;2023-03-01T04:16:13;3.35;;;1.52;;
66384;SDS011;53426;55.872;37.462;2023-03-01T04:18:38;1.33;;;1.20;;
66384;SDS011;53426;55.872;37.462;2023-03-01T04:21:07;2.08;;;1.55;;
66384;SDS011;53426;55.872;37.462;2023-03-01T04:23:33;2.53;;;1.80;;
66384;SDS011;53426;55.872;37.462;2023-03-01T04:26:01;7.00;;;1.55;;
66384;SDS011;53426;55.872;37.462;2023-03-01T04:28:30;2.05;;;1.63;;
66384;SDS011;53426;55.872;37.462;2023-03-01T04:31:11;1.20;;;1.15;;
66384;SDS011;53426;55.872;37.462;2023-03-01T04:33:41;2.15;;;1.25;;
66384;SDS011;53426;55.872;37.462;2023-03-01T04:36:12;1.98;;;1.40;;
66384;SDS011;53426;55.872;37.462;2023-03-01T04:38:39;2.38;;;1.58;;
66384;SDS011;53426;55.872;37.462;2023-03-01T04:41:09;3.72;;;2.03;;
66384;SDS011;53426;55.872;37.462;2023-03-01T04:43:36;2.63;;;1.55;;
66384;SDS011;53426;55.872;37.462;2023-03-01T04:46:03;3.03;;;2.28;;
66384;SDS011;53426;55.872;37.462;2023-03-01T04:48:35;4.57;;;1.50;;
66384;SDS011;53426;55.872;37.462;2023-03-01T04:51:02;2.38;;;1.67;;
66384;SDS011;53426;55.872;37.462;2023-03-01T04:53:28;1.40;;;1.30;;
66384;SDS011;53426;55.872;37.462;2023-03-01T04:55:55;1.65;;;1.40;;
66384;SDS011;53426;55.872;37.462;2023-03-01T04:58:23;3.55;;;1.40;;
66384;SDS011;53426;55.872;37.462;2023-03-01T05:00:52;1.25;;;1.23;;
66384;SDS011;53426;55.872;37.462;2023-03-01T05:03:19;3.42;;;1.30;;
66384;SDS011;53426;55.872;37.462;2023-03-01T05:05:49;5.45;;;1.80;;
66384;SDS011;53426;55.872;37.462;2023-03-01T05:08:16;2.40;;;1.35;;
66384;SDS011;53426;55.872;37.462;2023-03-01T05:10:47;1.85;;;1.35;;
66384;SDS011;53426;55.872;37.462;2023-03-01T05:13:15;5.68;;;1.58;;
66384;SDS011;53426;55.872;37.462;2023-03-01T05:15:48;1.35;;;1.25;;
66384;SDS011;53426;55.872;37.462;2023-03-01T05:18:20;4.15;;;1.67;;
66384;SDS011;53426;55.872;37.462;2023-03-01T05:20:46;4.65;;;2.28;;
66384;SDS011;53426;55.872;37.462;2023-03-01T05:23:12;4.15;;;2.03;;
66384;SDS011;53426;55.872;37.462;2023-03-01T05:25:38;4.28;;;1.55;;
66384;SDS011;53426;55.872;37.462;2023-03-01T05:28:06;2.50;;;1.90;;
66384;SDS011;53426;55.872;37.462;2023-03-01T05:30:35;3.55;;;1.73;;
66384;SDS011;53426;55.872;37.462;2023-03-01T05:33:01;1.52;;;1.30;;
66384;SDS011;53426;55.872;37.462;2023-03-01T05:35:27;4.32;;;1.80;;
66384;SDS011;53426;55.872;37.462;2023-03-01T05:37:54;4.97;;;1.65;;
66384;SDS011;53426;55.872;37.462;2023-03-01T05:40:22;2.38;;;1.83;;
66384;SDS011;53426;55.872;37.462;2023-03-01T05:42:52;5.88;;;1.70;;
66384;SDS011;53426;55.872;37.462;2023-03-01T05:45:19;2.65;;;1.40;;
66384;SDS011;53426;55.872;37.462;2023-03-01T05:47:46;2.83;;;1.58;;
66384;SDS011;53426;55.872;37.462;2023-03-01T05:50:14;2.53;;;1.70;;
66384;SDS011;53426;55.872;37.462;2023-03-01T05:55:15;1.92;;;1.48;;
66384;SDS011;53426;55.872;37.462;2023-03-01T05:57:46;1.90;;;1.50;;
66384;SDS011;53426;55.872;37.462;2023-03-01T06:00:13;4.97;;;1.75;;
66384;SDS011;53426;55.872;37.462;2023-03-01T06:02:40;2.25;;;1.60;;
66384;SDS011;53426;55.872;37.462;2023-03-01T06:05:06;1.63;;;1.27;;
66384;SDS011;53426;55.872;37.462;2023-03-01T06:07:34;1.17;;;0.98;;
66384;SDS011;53426;55.872;37.462;2023-03-01T06:10:01;2.47;;;1.70;;
66384;SDS011;53426;55.872;37.462;2023-03-01T06:12:32;4.68;;;1.83;;
66384;SDS011;53426;55.872;37.462;2023-03-01T06:15:01;2.80;;;1.63;;
66384;SDS011;53426;55.872;37.462;2023-03-01T06:17:30;3.25;;;1.85;;
66384;SDS011;53426;55.872;37.462;2023-03-01T06:19:58;3.58;;;1.98;;
66384;SDS011;53426;55.872;37.462;2023-03-01T06:22:24;2.05;;;1.85;;
66384;SDS011;53426;55.872;37.462;2023-03-01T06:24:50;8.02;;;1.92;;
66384;SDS011;53426;55.872;37.462;2023-03-01T06:27:17;3.70;;;2.15;;
66384;SDS011;53426;55.872;37.462;2023-03-01T06:29:44;1.85;;;1.60;;
66384;SDS011;53426;55.872;37.462;2023-03-01T06:32:09;2.03;;;1.25;;
66384;SDS011;53426;55.872;37.462;2023-03-01T06:34:35;5.38;;;1.85;;
66384;SDS011;53426;55.872;37.462;2023-03-01T06:37:01;1.17;;;1.15;;
66384;SDS011;53426;55.872;37.462;2023-03-01T06:39:31;2.80;;;1.98;;
66384;SDS011;53426;55.872;37.462;2023-03-01T06:41:57;2.25;;;1.50;;
66384;SDS011;53426;55.872;37.462;2023-03-01T06:44:23;1.85;;;1.60;;
66384;SDS011;53426;55.872;37.462;2023-03-01T06:46:49;1.90;;;1.80;;
66384;SDS011;53426;55.872;37.462;2023-03-01T06:49:15;3.17;;;2.40;;
66384;SDS011;53426;55.872;37.462;2023-03-01T06:51:43;3.17;;;2.42;;
66384;SDS011;53426;55.872;37.462;2023-03-01T06:54:09;3.38;;;1.95;;
66384;SDS011;53426;55.872;37.462;2023-03-01T06:56:35;6.22;;;2.10;;
66384;SDS011;53426;55.872;37.462;2023-03-01T06:59:01;2.22;;;1.90;;
66384;SDS011;53426;55.872;37.462;2023-03-01T07:01:28;3.35;;;2.30;;
66384;SDS011;53426;55.872;37.462;2023-03-01T07:03:54;4.55;;;2.17;;
66384;SDS011;53426;55.872;37.462;2023-03-01T07:06:20;3.50;;;1.77;;
66384;SDS011;53426;55.872;37.462;2023-03-01T07:08:46;3.22;;;1.90;;
66384;SDS011;53426;55.872;37.462;2023-03-01T07:11:13;1.83;;;1.73;;
66384;SDS011;53426;55.872;37.462;2023-03-01T07:13:40;4.10;;;1.90;;
66384;SDS011;53426;55.872;37.462;2023-03-01T07:16:06;7.78;;;1.52;;
66384;SDS011;53426;55.872;37.462;2023-03-01T07:18:32;2.53;;;1.75;;
66384;SDS011;53426;55.872;37.462;2023-03-01T07:20:58;2.67;;;1.95;;
66384;SDS011;53426;55.872;37.462;2023-03-01T07:23:28;3.20;;;1.95;;
66384;SDS011;53426;55.872;37.462;2023-03-01T07:25:55;3.55;;;2.38;;
66384;SDS011;53426;55.872;37.462;2023-03-01T07:28:24;4.60;;;2.22;;
66384;SDS011;53426;55.872;37.462;2023-03-01T07:30:51;2.20;;;1.92;;
66384;SDS011;53426;55.872;37.462;2023-03-01T07:33:17;3.47;;;2.38;;
66384;SDS011;53426;55.872;37.462;2023-03-01T07:35:43;2.55;;;1.80;;
66384;SDS011;53426;55.872;37.462;2023-03-01T07:38:10;4.63;;;2.00;;
66384;SDS011;53426;55.872;37.462;2023-03-01T07:40:36;4.35;;;2.08;;
66384;SDS011;53426;55.872;37.462;2023-03-01T07:43:02;4.95;;;2.28;;
66384;SDS011;53426;55.872;37.462;2023-03-01T07:45:28;6.63;;;2.58;;
66384;SDS011;53426;55.872;37.462;2023-03-01T07:47:55;4.05;;;2.08;;
66384;SDS011;53426;55.872;37.462;2023-03-01T07:50:21;6.35;;;2.78;;
66384;SDS011;53426;55.872;37.462;2023-03-01T07:52:48;6.05;;;2.05;;
66384;SDS011;53426;55.872;37.462;2023-03-01T07:55:15;3.55;;;2.25;;
66384;SDS011;53426;55.872;37.462;2023-03-01T07:57:41;6.30;;;2.45;;
66384;SDS011;53426;55.872;37.462;2023-03-01T08:00:08;3.17;;;2.22;;
66384;SDS011;53426;55.872;37.462;2023-03-01T08:02:39;3.05;;;2.20;;
66384;SDS011;53426;55.872;37.462;2023-03-01T08:05:07;2.72;;;2.28;;
66384;SDS011;53426;55.872;37.462;2023-03-01T08:07:36;3.90;;;2.17;;
66384;SDS011;53426;55.872;37.462;2023-03-01T08:10:02;7.22;;;2.70;;
66384;SDS011;53426;55.872;37.462;2023-03-01T08:12:28;6.13;;;2.10;;
66384;SDS011;53426;55.872;37.462;2023-03-01T08:14:54;4.60;;;2.25;;
66384;SDS011;53426;55.872;37.462;2023-03-01T08:17:20;3.65;;;1.90;;
66384;SDS011;53426;55.872;37.462;2023-03-01T08:19:46;3.67;;;1.73;;
66384;SDS011;53426;55.872;37.462;2023-03-01T08:22:11;4.65;;;2.20;;
66384;SDS011;53426;55.872;37.462;2023-03-01T08:24:37;4.32;;;1.95;;
66384;SDS011;53426;55.872;37.462;2023-03-01T08:27:04;3.38;;;1.67;;
66384;SDS011;53426;55.872;37.462;2023-03-01T08:29:31;3.28;;;1.85;;
66384;SDS011;53426;55.872;37.462;2023-03-01T08:31:59;4.50;;;1.92;;
66384;SDS011;53426;55.872;37.462;2023-03-01T08:34:25;9.50;;;2.30;;
66384;SDS011;53426;55.872;37.462;2023-03-01T08:36:51;4.07;;;1.77;;
66384;SDS011;53426;55.872;37.462;2023-03-01T08:39:19;4.93;;;2.22;;
66384;SDS011;53426;55.872;37.462;2023-03-01T08:41:46;4.80;;;2.35;;
66384;SDS011;53426;55.872;37.462;2023-03-01T08:44:13;3.80;;;1.77;;
66384;SDS011;53426;55.872;37.462;2023-03-01T08:46:41;3.38;;;1.83;;
66384;SDS011;53426;55.872;37.462;2023-03-01T08:49:09;4.70;;;2.25;;
66384;SDS011;53426;55.872;37.462;2023-03-01T08:51:42;3.38;;;1.83;;
66384;SDS011;53426;55.872;37.462;2023-03-01T08:54:11;2.75;;;1.80;;
66384;SDS011;53426;55.872;37.462;2023-03-01T08:56:41;2.70;;;1.83;;
66384;SDS011;53426;55.872;37.462;2023-03-01T08:59:08;4.30;;;2.20;;
66384;SDS011;53426;55.872;37.462;2023-03-01T09:01:35;3.40;;;1.92;;
66384;SDS011;53426;55.872;37.462;2023-03-01T09:04:02;3.53;;;1.92;;
66384;SDS011;53426;55.872;37.462;2023-03-01T09:06:31;2.22;;;2.00;;
66384;SDS011;53426;55.872;37.462;2023-03-01T09:09:01;2.50;;;1.80;;
66384;SDS011;53426;55.872;37.462;2023-03-01T09:11:29;5.13;;;2.28;;
66384;SDS011;53426;55.872;37.462;2023-03-01T09:13:57;1.60;;;1.50;;
66384;SDS011;53426;55.872;37.462;2023-03-01T09:16:27;2.95;;;1.63;;
66384;SDS011;53426;55.872;37.462;2023-03-01T09:19:01;1.60;;;1.50;;
66384;SDS011;53426;55.872;37.462;2023-03-01T09:21:27;2.00;;;1.77;;
66384;SDS011;53426;55.872;37.462;2023-03-01T09:23:55;2.25;;;1.70;;
66384;SDS011;53426;55.872;37.462;2023-03-01T09:26:22;2.65;;;1.70;;
66384;SDS011;53426;55.872;37.462;2023-03-01T09:28:49;1.90;;;1.70;;
66384;SDS011;53426;55.872;37.462;2023-03-01T09:31:17;2.90;;;1.90;;
66384;SDS011;53426;55.872;37.462;2023-03-01T09:33:48;6.95;;;1.95;;
66384;SDS011;53426;55.872;37.462;2023-03-01T09:36:16;3.28;;;1.95;;
66384;SDS011;53426;55.872;37.462;2023-03-01T09:38:46;3.70;;;1.90;;
66384;SDS011;53426;55.872;37.462;2023-03-01T09:44:03;4.13;;;2.13;;
66384;SDS011;53426;55.872;37.462;2023-03-01T09:46:42;8.68;;;1.55;;
66384;SDS011;53426;55.872;37.462;2023-03-01T09:49:15;3.15;;;1.88;;
66384;SDS011;53426;55.872;37.462;2023-03-01T09:54:55;2.95;;;1.70;;
66384;SDS011;53426;55.872;37.462;2023-03-01T10:05:49;5.55;;;1.73;;
66384;SDS011;53426;55.872;37.462;2023-03-01T10:10:37;1.88;;;1.50;;
66384;SDS011;53426;55.872;37.462;2023-03-01T10:13:48;4.97;;;1.75;;
66384;SDS011;53426;55.872;37.462;2023-03-01T10:16:15;5.25;;;2.35;;
66384;SDS011;53426;55.872;37.462;2023-03-01T10:18:51;3.75;;;1.88;;
66384;SDS011;53426;55.872;37.462;2023-03-01T10:21:21;3.05;;;1.70;;
66384;SDS011;53426;55.872;37.462;2023-03-01T10:23:49;2.85;;;1.70;;
66384;SDS011;53426;55.872;37.462;2023-03-01T10:29:33;3.55;;;1.80;;
66384;SDS011;53426;55.872;37.462;2023-03-01T10:32:03;3.00;;;1.98;;
66384;SDS011;53426;55.872;37.462;2023-03-01T10:34:33;2.55;;;1.48;;
66384;SDS011;53426;55.872;37.462;2023-03-01T10:37:10;1.80;;;1.25;;
66384;SDS011;53426;55.872;37.462;2023-03-01T10:39:53;3.10;;;1.80;;
66384;SDS011;53426;55.872;37.462;2023-03-01T10:42:30;4.43;;;1.40;;
66384;SDS011;53426;55.872;37.462;2023-03-01T10:45:27;2.92;;;1.40;;
66384;SDS011;53426;55.872;37.462;2023-03-01T10:48:11;2.95;;;1.40;;
66384;SDS011;53426;55.872;37.462;2023-03-01T10:50:39;2.67;;;1.63;;
66384;SDS011;53426;55.872;37.462;2023-03-01T10:56:12;3.45;;;1.55;;
66384;SDS011;53426;55.872;37.462;2023-03-01T10:59:01;2.92;;;1.50;;
66384;SDS011;53426;55.872;37.462;2023-03-01T11:01:34;3.85;;;1.85;;
66384;SDS011;53426;55.872;37.462;2023-03-01T11:06:33;2.75;;;1.92;;
66384;SDS011;53426;55.872;37.462;2023-03-01T11:09:21;3.30;;;1.67;;
66384;SDS011;53426;55.872;37.462;2023-03-01T11:11:54;2.53;;;1.48;;
66384;SDS011;53426;55.872;37.462;2023-03-01T11:14:22;2.78;;;1.58;;
66384;SDS011;53426;55.872;37.462;2023-03-01T11:16:49;1.80;;;1.40;;
66384;SDS011;53426;55.872;37.462;2023-03-01T11:19:25;4.75;;;2.17;;
66384;SDS011;53426;55.872;37.462;2023-03-01T11:24:29;1.70;;;1.60;;
66384;SDS011;53426;55.872;37.462;2023-03-01T11:26:55;6.05;;;1.50;;
66384;SDS011;53426;55.872;37.462;2023-03-01T11:29:46;1.52;;;1.40;;
66384;SDS011;53426;55.872;37.462;2023-03-01T11:32:41;2.38;;;1.30;;
66384;SDS011;53426;55.872;37.462;2023-03-01T11:35:17;1.65;;;1.30;;
66384;SDS011;53426;55.872;37.462;2023-03-01T11:37:56;6.00;;;1.70;;
66384;SDS011;53426;55.872;37.462;2023-03-01T11:40:47;3.28;;;1.50;;
66384;SDS011;53426;55.872;37.462;2023-03-01T11:52:00;2.05;;;1.45;;
66384;SDS011;53426;55.872;37.462;2023-03-01T12:03:22;6.60;;;1.40;;
66384;SDS011;53426;55.872;37.462;2023-03-01T12:05:55;3.95;;;1.50;;
66384;SDS011;53426;55.872;37.462;2023-03-01T12:25:43;1.30;;;1.20;;
66384;SDS011;53426;55.872;37.462;2023-03-01T12:36:31;2.42;;;1.13;;
66384;SDS011;53426;55.872;37.462;2023-03-01T12:45:26;1.20;;;1.10;;
66384;SDS011;53426;55.872;37.462;2023-03-01T12:50:41;2.05;;;1.35;;
66384;SDS011;53426;55.872;37.462;2023-03-01T12:53:26;4.68;;;1.65;;
66384;SDS011;53426;55.872;37.462;2023-03-01T12:55:56;1.55;;;1.30;;
66384;SDS011;53426;55.872;37.462;2023-03-01T12:58:33;1.25;;;1.15;;
66384;SDS011;53426;55.872;37.462;2023-03-01T13:07:23;2.35;;;1.50;;
66384;SDS011;53426;55.872;37.462;2023-03-01T13:18:00;1.55;;;1.20;;
66384;SDS011;53426;55.872;37.462;2023-03-01T13:26:00;2.85;;;1.70;;
66384;SDS011;53426;55.872;37.462;2023-03-01T13:33:53;1.27;;;1.17;;
66384;SDS011;53426;55.872;37.462;2023-03-01T13:39:00;1.95;;;1.08;;
66384;SDS011;53426;55.872;37.462;2023-03-01T13:46:49;1.83;;;1.65;;
66384;SDS011;53426;55.872;37.462;2023-03-01T13:49:18;1.40;;;0.88;;
66384;SDS011;53426;55.872;37.462;2023-03-01T13:51:47;5.20;;;1.67;;
66384;SDS011;53426;55.872;37.462;2023-03-01T13:54:15;2.03;;;1.35;;
66384;SDS011;53426;55.872;37.462;2023-03-01T13:56:55;1.55;;;1.35;;
66384;SDS011;53426;55.872;37.462;2023-03-01T13:59:23;1.30;;;1.15;;
66384;SDS011;53426;55.872;37.462;2023-03-01T14:01:52;4.95;;;1.40;;
66384;SDS011;53426;55.872;37.462;2023-03-01T14:04:23;1.85;;;1.52;;
66384;SDS011;53426;55.872;37.462;2023-03-01T14:06:52;1.50;;;1.17;;
66384;SDS011;53426;55.872;37.462;2023-03-01T14:09:39;4.28;;;1.52;;
66384;SDS011;53426;55.872;37.462;2023-03-01T14:17:49;1.70;;;1.40;;
66384;SDS011;53426;55.872;37.462;2023-03-01T14:20:21;1.40;;;1.30;;
66384;SDS011;53426;55.872;37.462;2023-03-01T14:22:51;1.95;;;1.42;;
66384;SDS011;53426;55.872;37.462;2023-03-01T14:28:00;4.07;;;1.65;;
66384;SDS011;53426;55.872;37.462;2023-03-01T14:30:41;1.15;;;0.90;;
66384;SDS011;53426;55.872;37.462;2023-03-01T14:33:29;1.70;;;1.60;;
66384;SDS011;53426;55.872;37.462;2023-03-01T14:36:09;1.48;;;1.25;;
66384;SDS011;53426;55.872;37.462;2023-03-01T14:38:43;1.98;;;1.40;;
66384;SDS011;53426;55.872;37.462;2023-03-01T14:43:44;1.50;;;1.40;;
66384;SDS011;53426;55.872;37.462;2023-03-01T14:46:20;3.40;;;1.50;;
66384;SDS011;53426;55.872;37.462;2023-03-01T14:48:51;1.83;;;1.48;;
66384;SDS011;53426;55.872;37.462;2023-03-01T14:51:29;2.72;;;1.75;;
66384;SDS011;53426;55.872;37.462;2023-03-01T14:53:57;2.85;;;1.67;;
66384;SDS011;53426;55.872;37.462;2023-03-01T14:56:25;9.00;;;2.08;;
66384;SDS011;53426;55.872;37.462;2023-03-01T14:58:51;5.20;;;1.80;;
66384;SDS011;53426;55.872;37.462;2023-03-01T15:01:18;5.13;;;2.30;;
66384;SDS011;53426;55.872;37.462;2023-03-01T15:03:47;2.80;;;1.92;;
66384;SDS011;53426;55.872;37.462;2023-03-01T15:06:16;1.90;;;1.63;;
66384;SDS011;53426;55.872;37.462;2023-03-01T15:08:48;1.98;;;1.50;;
66384;SDS011;53426;55.872;37.462;2023-03-01T15:11:19;2.05;;;1.50;;
66384;SDS011;53426;55.872;37.462;2023-03-01T15:13:56;4.10;;;1.40;;
66384;SDS011;53426;55.872;37.462;2023-03-01T15:16:24;1.35;;;1.20;;
66384;SDS011;53426;55.872;37.462;2023-03-01T15:31:21;1.98;;;1.10;;
66384;SDS011;53426;55.872;37.462;2023-03-01T15:33:49;1.58;;;1.48;;
66384;SDS011;53426;55.872;37.462;2023-03-01T15:42:03;2.38;;;1.35;;
66384;SDS011;53426;55.872;37.462;2023-03-01T15:44:49;1.38;;;1.17;;
66384;SDS011;53426;55.872;37.462;2023-03-01T15:47:30;1.25;;;1.15;;
66384;SDS011;53426;55.872;37.462;2023-03-01T15:49:57;2.22;;;1.40;;
66384;SDS011;53426;55.872;37.462;2023-03-01T15:52:27;1.67;;;1.10;;
66384;SDS011;53426;55.872;37.462;2023-03-01T15:54:56;1.27;;;1.17;;
66384;SDS011;53426;55.872;37.462;2023-03-01T15:57:29;2.30;;;1.50;;
66384;SDS011;53426;55.872;37.462;2023-03-01T15:59:55;1.70;;;1.05;;
66384;SDS011;53426;55.872;37.462;2023-03-01T16:02:21;1.17;;;1.08;;
66384;SDS011;53426;55.872;37.462;2023-03-01T16:04:49;1.50;;;1.40;;
66384;SDS011;53426;55.872;37.462;2023-03-01T16:07:15;1.77;;;1.20;;
66384;SDS011;53426;55.872;37.462;2023-03-01T16:09:41;2.58;;;1.60;;
66384;SDS011;53426;55.872;37.462;2023-03-01T16:12:15;1.40;;;1.30;;
66384;SDS011;53426;55.872;37.462;2023-03-01T16:14:42;1.45;;;1.10;;
66384;SDS011;53426;55.872;37.462;2023-03-01T16:17:07;2.15;;;1.05;;
66384;SDS011;53426;55.872;37.462;2023-03-01T16:19:35;3.03;;;1.15;;
66384;SDS011;53426;55.872;37.462;2023-03-01T16:22:04;1.75;;;1.20;;
66384;SDS011;53426;55.872;37.462;2023-03-01T16:24:30;2.47;;;1.35;;
66384;SDS011;53426;55.872;37.462;2023-03-01T16:26:56;1.17;;;1.10;;
66384;SDS011;53426;55.872;37.462;2023-03-01T16:29:22;1.33;;;1.20;;
66384;SDS011;53426;55.872;37.462;2023-03-01T16:31:51;2.75;;;1.63;;
66384;SDS011;53426;55.872;37.462;2023-03-01T16:34:16;1.13;;;1.10;;
66384;SDS011;53426;55.872;37.462;2023-03-01T16:36:42;2.47;;;1.23;;
66384;SDS011;53426;55.872;37.462;2023-03-01T16:39:08;1.08;;;1.08;;
66384;SDS011;53426;55.872;37.462;2023-03-01T16:44:26;4.63;;;1.38;;
66384;SDS011;53426;55.872;37.462;2023-03-01T16:46:53;2.10;;;1.30;;
66384;SDS011;53426;55.872;37.462;2023-03-01T16:49:19;2.40;;;1.25;;
66384;SDS011;53426;55.872;37.462;2023-03-01T16:51:45;2.25;;;1.30;;
66384;SDS011;53426;55.872;37.462;2023-03-01T16:54:13;3.45;;;1.45;;
66384;SDS011;53426;55.872;37.462;2023-03-01T16:56:40;1.30;;;1.10;;
66384;SDS011;53426;55.872;37.462;2023-03-01T16:59:06;1.23;;;1.10;;
66384;SDS011;53426;55.872;37.462;2023-03-01T17:01:32;2.92;;;1.23;;
66384;SDS011;53426;55.872;37.462;2023-03-01T17:04:55;2.40;;;1.38;;
66384;SDS011;53426;55.872;37.462;2023-03-01T17:07:21;0.90;;;0.90;;
66384;SDS011;53426;55.872;37.462;2023-03-01T17:09:47;1.70;;;1.30;;
66384;SDS011;53426;55.872;37.462;2023-03-01T17:12:14;1.83;;;1.30;;
66384;SDS011;53426;55.872;37.462;2023-03-01T17:14:40;1.00;;;1.00;;
66384;SDS011;53426;55.872;37.462;2023-03-01T17:17:11;2.17;;;1.63;;
66384;SDS011;53426;55.872;37.462;2023-03-01T17:19:43;1.95;;;1.63;;
66384;SDS011;53426;55.872;37.462;2023-03-01T17:22:10;3.70;;;1.58;;
66384;SDS011;53426;55.872;37.462;2023-03-01T17:24:48;1.70;;;1.13;;
66384;SDS011;53426;55.872;37.462;2023-03-01T17:27:13;2.28;;;1.27;;
66384;SDS011;53426;55.872;37.462;2023-03-01T17:29:40;2.67;;;1.40;;
66384;SDS011;53426;55.872;37.462;2023-03-01T17:32:07;2.97;;;1.40;;